Bevent, Wisconsin
Current Conditions -  °F | °C
As of 12:05 PM on Monday 26 Jan 2015 (Local Time) from KCWA Reporting Station
Light Snow Light Snow  
Wind Chill: -13°   Ceiling: 1300
Heat Index: -8°   Visibility: 2.5mi
Dew Point: -8°   Wind: 7mph
Humidity: 100%   Direction: 120°ESE
Pressure: 29.78"   Gusts: NA
Location:  44.8205°N, 89.392°W
Report Text: KCWA 261805Z 12006KT 2 1/2SM -SN SCT009 OVC013 M08/M08 A2978
Loading
Personal Weather Stations






























Interactive Weather Map New forecast layout! Learn more

10-Day Weather Forecast

Advertisements
Track Severe Weather on mobile